Bezoek ook deze websites:

Mijn andere website

Weerstation Noordbergum

Weerstation in Leuven


U vindt ons ook hier:

Weather Underground


METAR rapporten vliegvelden

   
EHGG - Groningen/Eelde, Netherlands
Afstand tot: ONO 18 km
Gewijzigd: 03-04-2020 18:55
Bewolking  
Bewolking  
   Wind: NW 11.1 km/h
Wind: NW 11.1 km/h
Temperatuur: 7°C
Voelt als: 5°C
Dauwpunt: 2°C
Vochtigheid: 71%
Barometer: 1017 hPa
Bewolking: Bewolking
Zicht: meer dan 10 km
Bewolking: Gedeeltelijk bewolkt 3500 ft,
Grotendeels bewolkt 3900 ft,
Bewolking 4400 ft
EHGG 031655Z AUTO 32006KT 290V010 9999 SCT035 BKN039 OVC044 07/02 Q1017 NOSIG
EHLW - Leeuwarden Rnlaf, Netherlands
Afstand tot: WNW 45 km
Gewijzigd: 03-04-2020 18:55
Grotendeels bewolkt  
Grotendeels bewolkt  
   Wind: WNW 18.5 km/h
Wind: WNW 18.5 km/h
Temperatuur: 7°C
Voelt als: 4°C
Dauwpunt: 0°C
Vochtigheid: 61%
Barometer: 1017 hPa
Bewolking: Grotendeels bewolkt
Zicht: meer dan 10 km
Bewolking: Gedeeltelijk bewolkt 3400 ft,
Gedeeltelijk bewolkt 3800 ft,
Grotendeels bewolkt 5600 ft
EHLW 031655Z AUTO 29010KT 250V320 9999 SCT034 SCT038 BKN056 07/M00 Q1017 BLU
EHVL - Vlieland Island, Netherlands
Afstand tot: WNW 98 km
Gewijzigd: 03-04-2020 18:55
Grotendeels bewolkt  
Grotendeels bewolkt  
   Wind: WNW 24.1 km/h
Wind: WNW 24.1 km/h
Temperatuur: 7°C
Voelt als: 3°C
Dauwpunt: 0°C
Vochtigheid: 61%
Barometer: 1018 hPa
Bewolking: Grotendeels bewolkt
Zicht: meer dan 10 km
Bewolking: Licht bewolkt 3000 ft,
Gedeeltelijk bewolkt 3600 ft,
Grotendeels bewolkt 34000 ft
EHVL 031655Z AUTO 29013KT 9999 FEW030 SCT036 BKN340 07/00 Q1018 BLU
EHKD - De Kooy (navy), Netherlands
Afstand tot: W 106 km
Gewijzigd: 03-04-2020 18:55
Helder  
Helder  
   Wind: WNW 20.4 km/h
Wind: WNW 20.4 km/h
Temperatuur: 8°C
Voelt als: 5°C
Dauwpunt: 1°C
Vochtigheid: 62%
Barometer: 1018 hPa
Bewolking: Helder
Zicht: meer dan 10 km
Bewolking: Helder
EHKD 031655Z AUTO 29011KT 260V330 9999 NCD 08/01 Q1018 BLU 28010KT 9999 FEW030
EHDL - Deelen Rnlafb, Netherlands
Afstand tot: ZZW 112 km
Gewijzigd: 03-04-2020 18:55
Bewolking  
Bewolking  
   Wind: NW 18.5 km/h
Wind: NW 18.5 km/h
Temperatuur: 8°C
Voelt als: 5°C
Dauwpunt: 0°C
Vochtigheid: 57%
Barometer: 1018 hPa
Bewolking: Bewolking
Zicht: meer dan 10 km
Bewolking: Grotendeels bewolkt 3600 ft,
Bewolking 4000 ft
EHDL 031655Z AUTO 32010KT 270V010 9999 BKN036 OVC040 08/M00 Q1018 BLU
EHAM - Amsterdam/Schiph, Netherlands
Afstand tot: ZW 132 km
Gewijzigd: 03-04-2020 18:55
Licht bewolkt  
Licht bewolkt  
   Wind: WNW 22.2 km/h
Wind: WNW 22.2 km/h
Temperatuur: 8°C
Voelt als: 4°C
Dauwpunt: 1°C
Vochtigheid: 62%
Barometer: 1018 hPa
Bewolking: Licht bewolkt
Zicht: meer dan 10 km
Bewolking: Licht bewolkt 3200 ft
EHAM 031655Z 29012KT 9999 FEW032 08/01 Q1018 NOSIG

Script ontwikkeld door  Saratoga-weather.org Aangepast voor de template door  Weerstation Leuven

Apparatuur in gebruik:

Weerstation
Davis VP2

Weerprogramma
Meteobridge

Weercomputer
TP-link TL-MR3020

Webleverancier
Versio

Davis VP2

Meteobridge

TP-link TL-MR3020

Versio